Time;durP1;ratioP1;P1;durP2;ratioP2;P2;SDS_P1;SDS_P2;PMS_P1;PMS_P2;Temp;Humidity;BMP_temperature;BMP_pressure;BME280_temperature;BME280_humidity;BME280_pressure;Samples;Min_cycle;Max_cycle;Signal;HPM_P1;HPM_P2
2023/04/25 00:01:40;;;;;;;2.97;2.55;;;;;;;21.44;40.04;100837.41;143726;596;47009;-70
2023/04/25 00:04:08;;;;;;;6.12;3.22;;;;;;;21.42;40.44;100845.88;143723;572;47006;-69
2023/04/25 00:06:36;;;;;;;5.30;3.10;;;;;;;21.41;40.42;100844.22;143725;577;47002;-69
2023/04/25 00:09:06;;;;;;;4.75;3.35;;;;;;;21.39;40.72;100840.09;143724;580;47011;-70
2023/04/25 00:11:33;;;;;;;3.83;2.67;;;;;;;21.35;40.98;100832.47;143722;580;47004;-70
2023/04/25 00:14:01;;;;;;;3.95;2.75;;;;;;;21.32;40.91;100840.34;143726;597;46016;-69
2023/04/25 00:16:30;;;;;;;4.90;3.08;;;;;;;21.30;40.42;100837.06;143723;626;47002;-71
2023/04/25 00:18:58;;;;;;;4.32;3.00;;;;;;;21.29;40.03;100836.25;143726;586;46924;-70
2023/04/25 00:21:25;;;;;;;5.32;2.90;;;;;;;21.28;39.94;100842.81;143719;578;47008;-69
2023/04/25 00:23:53;;;;;;;4.40;2.92;;;;;;;21.27;39.64;100838.44;143724;676;47006;-70
2023/04/25 00:26:20;;;;;;;4.40;2.70;;;;;;;21.26;39.26;100849.66;143724;585;47004;-70
2023/04/25 00:28:47;;;;;;;4.35;2.65;;;;;;;21.25;39.63;100846.06;143726;644;47008;-68
2023/04/25 00:31:14;;;;;;;5.10;2.60;;;;;;;21.24;38.46;100838.16;143724;693;47002;-70
2023/04/25 00:33:40;;;;;;;4.12;2.50;;;;;;;21.23;37.95;100834.59;143725;570;46006;-70
2023/04/25 00:36:08;;;;;;;4.55;2.60;;;;;;;21.25;38.40;100840.63;143722;716;47004;-69
2023/04/25 00:38:35;;;;;;;3.55;2.47;;;;;;;21.25;38.52;100843.34;143723;600;47010;-69
2023/04/25 00:41:02;;;;;;;3.25;2.30;;;;;;;21.25;37.90;100834.34;143722;676;47004;-69
2023/04/25 00:43:30;;;;;;;3.12;2.83;;;;;;;21.25;38.19;100840.63;143725;580;46006;-69
2023/04/25 00:45:57;;;;;;;3.90;2.70;;;;;;;21.25;38.35;100831.59;143726;586;47002;-68
2023/04/25 00:48:23;;;;;;;4.47;2.92;;;;;;;21.24;38.31;100825.31;143724;595;47008;-70
2023/04/25 00:50:57;;;;;;;4.80;3.22;;;;;;;21.22;38.75;100830.22;143722;579;47004;-69
2023/04/25 00:53:25;;;;;;;3.95;2.45;;;;;;;21.20;37.94;100827.75;143727;585;46007;-69
2023/04/25 00:55:52;;;;;;;4.57;2.42;;;;;;;21.20;38.44;100830.50;143726;602;47002;-69
2023/04/25 00:58:20;;;;;;;5.10;2.80;;;;;;;21.22;38.46;100834.88;143726;590;46924;-70
2023/04/25 01:00:48;;;;;;;6.85;3.08;;;;;;;21.19;38.67;100830.75;143722;605;47004;-70
2023/04/25 01:03:17;;;;;;;6.03;2.92;;;;;;;21.18;39.05;100826.41;143726;686;47006;-70
2023/04/25 01:05:44;;;;;;;5.50;2.67;;;;;;;21.17;38.78;100824.75;143726;619;47002;-70
2023/04/25 01:08:10;;;;;;;3.25;2.53;;;;;;;21.15;38.39;100835.94;143725;576;47008;-70
2023/04/25 01:10:37;;;;;;;4.50;3.30;;;;;;;21.13;38.42;100832.63;143723;672;47004;-69
2023/04/25 01:13:04;;;;;;;6.80;3.33;;;;;;;21.13;38.17;100835.38;143726;590;46006;-70
2023/04/25 01:15:30;;;;;;;6.60;3.70;;;;;;;21.12;38.46;100831.00;143723;593;47003;-70
2023/04/25 01:17:58;;;;;;;8.63;4.47;;;;;;;21.10;38.66;100824.97;143725;569;47010;-69
2023/04/25 01:20:26;;;;;;;8.27;5.07;;;;;;;21.10;38.87;100814.06;143723;668;47004;-71
2023/04/25 01:22:53;;;;;;;9.75;5.57;;;;;;;21.10;38.71;100815.97;143725;597;46007;-70
2023/04/25 01:25:21;;;;;;;8.27;5.53;;;;;;;21.05;39.19;100803.94;143726;595;47004;-70
2023/04/25 01:27:47;;;;;;;9.23;5.45;;;;;;;21.05;39.27;100800.41;143724;623;47010;-69
2023/04/25 01:30:15;;;;;;;8.75;6.37;;;;;;;21.01;39.42;100797.34;143721;750;47005;-70
2023/04/25 01:32:42;;;;;;;13.13;5.95;;;;;;;20.98;39.05;100797.06;143728;603;46019;-69
2023/04/25 01:35:10;;;;;;;7.20;5.25;;;;;;;20.97;39.56;100793.53;143723;755;47002;-69
2023/04/25 01:37:41;;;;;;;12.80;6.85;;;;;;;20.95;40.57;100794.88;143726;575;46925;-69
2023/04/25 01:40:09;;;;;;;7.78;5.35;;;;;;;20.92;40.17;100792.69;143723;849;47004;-69
2023/04/25 01:42:38;;;;;;;8.63;5.28;;;;;;;20.89;40.35;100794.03;143722;582;47006;-70
2023/04/25 01:45:05;;;;;;;9.10;4.50;;;;;;;20.88;39.87;100782.31;143725;602;47002;-71
2023/04/25 01:47:32;;;;;;;5.28;3.40;;;;;;;20.87;39.65;100790.75;143726;583;46017;-71
2023/04/25 01:49:58;;;;;;;7.00;3.80;;;;;;;20.86;39.76;100784.47;143723;581;48002;-71
2023/04/25 01:52:24;;;;;;;7.35;4.40;;;;;;;20.87;39.66;100793.47;143728;849;46014;-72
2023/04/25 01:54:52;;;;;;;7.97;4.32;;;;;;;20.85;40.47;100790.19;143726;572;47006;-70
2023/04/25 01:57:18;;;;;;;7.75;5.07;;;;;;;20.82;40.71;100796.22;143725;592;47010;-71
2023/04/25 01:59:45;;;;;;;8.70;5.20;;;;;;;20.79;40.57;100789.34;143720;586;47932;-71
2023/04/25 02:02:12;;;;;;;7.97;4.55;;;;;;;20.77;41.06;100788.00;143729;607;46006;-70
2023/04/25 02:04:38;;;;;;;7.07;3.78;;;;;;;20.73;40.75;100793.13;143723;568;47002;-70
2023/04/25 02:07:04;;;;;;;7.75;3.97;;;;;;;20.71;40.84;100787.13;143725;865;46924;-70
2023/04/25 02:09:31;;;;;;;9.75;4.22;;;;;;;20.70;41.01;100788.19;143722;579;47004;-70
2023/04/25 02:11:57;;;;;;;5.95;4.03;;;;;;;20.66;40.97;100779.69;143726;617;46922;-70
2023/04/25 02:14:24;;;;;;;12.43;4.18;;;;;;;20.63;41.01;100787.59;143727;908;47000;-71
2023/04/25 02:16:51;;;;;;;8.30;3.72;;;;;;;20.59;41.18;100776.41;143725;593;46925;-70
2023/04/25 02:19:17;;;;;;;6.72;3.85;;;;;;;20.58;41.24;100775.56;143722;590;47004;-70
2023/04/25 02:21:43;;;;;;;8.48;4.12;;;;;;;20.56;41.36;100777.72;143725;982;47004;-70
2023/04/25 02:24:10;;;;;;;9.32;3.85;;;;;;;20.53;41.45;100770.09;143726;805;47002;-70
2023/04/25 02:26:36;;;;;;;6.35;3.70;;;;;;;20.52;41.44;100770.34;143725;953;47004;-69
2023/04/25 02:29:02;;;;;;;3.83;3.03;;;;;;;20.51;40.87;100775.00;143724;927;47004;-71
2023/04/25 02:31:29;;;;;;;3.55;2.80;;;;;;;20.51;40.33;100769.53;143724;586;47006;-70
2023/04/25 02:33:55;;;;;;;4.47;2.90;;;;;;;20.52;39.90;100779.37;143725;894;47002;-71
2023/04/25 02:36:21;;;;;;;5.05;2.90;;;;;;;20.50;40.24;100767.06;143726;708;46010;-70
2023/04/25 02:38:47;;;;;;;4.85;2.90;;;;;;;20.50;40.21;100770.62;143723;688;47004;-70
2023/04/25 02:41:14;;;;;;;4.72;3.12;;;;;;;20.51;40.08;100776.88;143723;972;47006;-70
2023/04/25 02:43:40;;;;;;;8.48;3.03;;;;;;;20.52;40.15;100771.19;143725;572;47004;-70
2023/04/25 02:46:07;;;;;;;6.12;2.97;;;;;;;20.51;40.42;100777.72;143726;579;47008;-70
2023/04/25 02:48:33;;;;;;;4.10;3.33;;;;;;;20.48;40.77;100764.59;143723;599;47004;-71
2023/04/25 02:50:59;;;;;;;5.68;3.40;;;;;;;20.47;40.40;100764.88;143727;746;46017;-71
2023/04/25 02:53:26;;;;;;;7.20;3.42;;;;;;;20.44;40.47;100767.06;143726;599;47004;-70
2023/04/25 02:55:52;;;;;;;5.47;3.50;;;;;;;20.44;41.06;100763.47;143722;580;47010;-70
2023/04/25 02:58:19;;;;;;;4.32;3.20;;;;;;;20.42;41.45;100757.47;143723;973;47932;-71
2023/04/25 03:00:45;;;;;;;4.15;3.28;;;;;;;20.41;41.60;100761.28;143725;804;47006;-71
2023/04/25 03:03:12;;;;;;;6.75;4.05;;;;;;;20.41;40.87;100758.56;143724;597;47002;-71
2023/04/25 03:05:38;;;;;;;6.97;3.50;;;;;;;20.38;41.01;100762.63;143725;591;47008;-70
2023/04/25 03:08:04;;;;;;;8.13;3.58;;;;;;;20.38;41.17;100767.28;143724;574;47004;-71
2023/04/25 03:10:31;;;;;;;5.25;3.22;;;;;;;20.37;41.23;100768.38;143726;599;47006;-72
2023/04/25 03:12:57;;;;;;;5.22;3.33;;;;;;;20.37;40.72;100771.91;143723;581;47002;-71
2023/04/25 03:15:23;;;;;;;8.25;2.95;;;;;;;20.36;40.70;100769.47;143724;596;47008;-71
2023/04/25 03:17:50;;;;;;;6.18;2.65;;;;;;;20.34;40.56;100769.69;143723;566;47004;-70
2023/04/25 03:20:16;;;;;;;4.60;3.28;;;;;;;20.32;40.75;100771.88;143724;980;47006;-69
2023/04/25 03:22:43;;;;;;;7.15;2.83;;;;;;;20.28;41.00;100778.94;143725;610;47005;-70
2023/04/25 03:25:09;;;;;;;4.78;2.92;;;;;;;20.27;40.54;100778.12;143725;567;47008;-69
2023/04/25 03:27:36;;;;;;;4.53;2.67;;;;;;;20.26;40.63;100787.38;143726;893;47002;-69
2023/04/25 03:30:03;;;;;;;5.37;2.67;;;;;;;20.25;40.71;100784.94;143726;567;46007;-71
2023/04/25 03:32:30;;;;;;;3.85;3.10;;;;;;;20.25;40.65;100774.81;143730;797;46008;-71
2023/04/25 03:34:56;;;;;;;5.90;2.97;;;;;;;20.25;41.24;100768.56;143726;608;47002;-71
2023/04/25 03:37:22;;;;;;;8.57;3.53;;;;;;;20.25;41.90;100763.91;143722;764;47005;-71
2023/04/25 03:39:48;;;;;;;3.75;2.87;;;;;;;20.24;42.25;100769.66;143725;973;46006;-71
2023/04/25 03:42:15;;;;;;;7.97;3.70;;;;;;;20.21;42.02;100770.16;143723;984;47002;-71
2023/04/25 03:44:41;;;;;;;5.40;3.58;;;;;;;20.19;41.95;100775.91;143723;579;47010;-71
2023/04/25 03:47:08;;;;;;;5.85;3.47;;;;;;;20.16;41.42;100762.78;143723;972;47004;-71
2023/04/25 03:49:34;;;;;;;5.10;3.22;;;;;;;20.17;41.73;100763.59;143722;865;49006;-71
2023/04/25 03:52:00;;;;;;;4.30;3.15;;;;;;;20.14;42.01;100760.28;143730;682;46006;-72
2023/04/25 03:54:27;;;;;;;5.32;3.37;;;;;;;20.14;41.90;100760.28;143726;586;46029;-71
2023/04/25 03:56:53;;;;;;;6.03;3.55;;;;;;;20.15;41.65;100761.12;143725;667;47004;-71
2023/04/25 03:59:20;;;;;;;9.02;3.15;;;;;;;20.13;41.65;100761.38;143725;733;46007;-71
2023/04/25 04:01:46;;;;;;;6.32;3.40;;;;;;;20.13;41.89;100758.66;143729;593;46006;-72
2023/04/25 04:04:12;;;;;;;6.30;4.25;;;;;;;20.11;42.47;100768.19;143725;982;47010;-71
2023/04/25 04:06:39;;;;;;;8.27;4.28;;;;;;;20.09;41.85;100764.88;143722;972;47004;-71
2023/04/25 04:09:09;;;;;;;5.20;3.58;;;;;;;20.10;41.29;100751.00;143727;986;46922;-71
2023/04/25 04:11:38;;;;;;;9.00;4.10;;;;;;;20.11;41.91;100760.00;143726;566;47002;-70
2023/04/25 04:14:06;;;;;;;5.28;3.80;;;;;;;20.08;41.87;100764.09;143723;776;47009;-71
2023/04/25 04:16:32;;;;;;;6.65;3.75;;;;;;;20.10;41.10;100769.25;143725;844;47004;-72
2023/04/25 04:18:59;;;;;;;6.15;3.62;;;;;;;20.11;41.09;100773.63;143725;686;47006;-71
2023/04/25 04:21:26;;;;;;;5.47;3.90;;;;;;;20.11;41.24;100770.91;143726;591;47002;-70
2023/04/25 04:23:52;;;;;;;4.82;3.65;;;;;;;20.12;41.67;100767.09;143723;933;48924;-69
2023/04/25 04:26:18;;;;;;;6.53;3.90;;;;;;;20.10;42.03;100761.94;143725;948;47008;-71
2023/04/25 04:28:45;;;;;;;6.85;3.83;;;;;;;20.09;41.68;100767.62;143727;596;46007;-71
2023/04/25 04:31:11;;;;;;;5.85;3.22;;;;;;;20.08;41.35;100774.16;143726;599;47002;-71
2023/04/25 04:33:37;;;;;;;6.85;3.15;;;;;;;20.09;40.82;100775.81;143723;986;47010;-70
2023/04/25 04:36:04;;;;;;;7.43;3.50;;;;;;;20.11;41.05;100779.94;143727;585;46932;-69
2023/04/25 04:38:32;;;;;;;6.90;3.60;;;;;;;20.12;42.19;100781.53;143723;573;47000;-70
2023/04/25 04:40:58;;;;;;;6.65;3.55;;;;;;;20.12;41.85;100784.28;143725;885;47002;-69
2023/04/25 04:43:24;;;;;;;9.02;3.78;;;;;;;20.15;41.82;100777.50;143725;606;47010;-70
2023/04/25 04:45:51;;;;;;;4.82;3.70;;;;;;;20.17;41.22;100777.22;143723;977;47004;-70
2023/04/25 04:48:17;;;;;;;5.20;3.58;;;;;;;20.19;41.12;100783.22;143727;602;46922;-69
2023/04/25 04:50:46;;;;;;;10.30;3.70;;;;;;;20.21;41.47;100781.06;143727;704;47000;-69
2023/04/25 04:53:13;;;;;;;8.02;3.55;;;;;;;20.25;41.52;100779.47;143725;740;47008;-69
2023/04/25 04:55:41;;;;;;;10.43;4.40;;;;;;;20.26;42.47;100776.47;143720;621;47004;-70
2023/04/25 04:58:07;;;;;;;6.22;3.60;;;;;;;20.27;41.23;100782.75;143725;579;46922;-70
2023/04/25 05:00:34;;;;;;;7.20;4.03;;;;;;;20.26;40.93;100775.66;143725;588;47002;-69
2023/04/25 05:03:00;;;;;;;7.50;3.75;;;;;;;20.29;41.24;100783.31;143723;984;47010;-69
2023/04/25 05:05:27;;;;;;;7.62;4.62;;;;;;;20.30;41.47;100780.31;143722;567;47004;-69
2023/04/25 05:07:53;;;;;;;8.70;4.32;;;;;;;20.33;42.31;100769.97;143726;854;47006;-69
2023/04/25 05:10:20;;;;;;;12.07;3.90;;;;;;;20.35;42.40;100776.00;143728;584;47002;-70
2023/04/25 05:12:46;;;;;;;8.73;4.32;;;;;;;20.37;43.07;100776.56;143724;582;46010;-73
2023/04/25 05:15:13;;;;;;;10.20;4.50;;;;;;;20.40;42.99;100770.53;143728;575;46014;-69
2023/04/25 05:17:39;;;;;;;6.05;4.20;;;;;;;20.43;42.87;100764.56;143725;749;46922;-69
2023/04/25 05:20:09;;;;;;;12.60;4.93;;;;;;;20.47;43.01;100770.34;143726;580;47002;-69
2023/04/25 05:22:35;;;;;;;16.85;4.35;;;;;;;20.51;43.30;100764.09;143725;588;47010;-69
2023/04/25 05:25:02;;;;;;;7.53;4.05;;;;;;;20.54;43.85;100769.03;143723;580;47004;-69
2023/04/25 05:27:28;;;;;;;8.20;4.82;;;;;;;20.57;43.82;100767.66;143724;986;47922;-69
2023/04/25 05:29:54;;;;;;;7.80;3.83;;;;;;;20.59;43.05;100768.22;143725;672;47002;-69
2023/04/25 05:32:20;;;;;;;6.50;4.07;;;;;;;20.62;43.55;100759.50;143727;579;46010;-68
2023/04/25 05:34:46;;;;;;;9.85;4.30;;;;;;;20.66;43.65;100763.31;143724;566;47004;-70
2023/04/25 05:37:13;;;;;;;9.20;3.62;;;;;;;20.71;43.11;100762.56;143726;956;46006;-67
2023/04/25 05:39:39;;;;;;;7.30;4.00;;;;;;;20.73;42.70;100758.47;143725;594;47004;-67
2023/04/25 05:42:05;;;;;;;9.65;4.30;;;;;;;20.77;42.10;100757.97;143725;755;47004;-67
2023/04/25 05:44:31;;;;;;;10.13;4.43;;;;;;;20.79;43.16;100761.25;143721;576;47004;-68
2023/04/25 05:46:58;;;;;;;7.70;4.12;;;;;;;20.84;42.95;100769.44;143724;588;47000;-66
2023/04/25 05:49:24;;;;;;;8.13;4.35;;;;;;;20.88;43.07;100771.41;143723;709;47002;-67
2023/04/25 05:51:50;;;;;;;13.48;6.22;;;;;;;20.94;41.98;100763.19;143723;689;47010;-68
2023/04/25 05:54:17;;;;;;;18.48;13.18;;;;;;;21.00;41.53;100762.94;143726;568;46017;-68
2023/04/25 05:56:43;;;;;;;12.40;7.47;;;;;;;21.04;40.98;100763.25;143724;578;47006;-67
2023/04/25 05:59:10;;;;;;;9.70;6.03;;;;;;;21.10;41.53;100759.44;143725;589;46007;-68
2023/04/25 06:01:36;;;;;;;10.70;7.05;;;;;;;21.15;41.85;100759.47;143723;588;47004;-68
2023/04/25 06:04:02;;;;;;;14.57;7.57;;;;;;;21.22;41.76;100759.19;143724;595;46015;-68
2023/04/25 06:06:28;;;;;;;17.70;12.88;;;;;;;21.29;41.15;100758.94;143723;594;46006;-67
2023/04/25 06:08:55;;;;;;;15.05;9.65;;;;;;;21.38;41.02;100756.50;143725;572;47004;-68
2023/04/25 06:11:21;;;;;;;11.10;7.07;;;;;;;21.45;40.79;100760.59;143723;848;46924;-69
2023/04/25 06:13:48;;;;;;;14.02;7.47;;;;;;;21.50;40.51;100755.16;143724;587;47004;-69
2023/04/25 06:16:14;;;;;;;15.07;9.82;;;;;;;21.55;40.17;100751.59;143723;586;47002;-69
2023/04/25 06:18:40;;;;;;;17.62;10.63;;;;;;;21.59;40.64;100760.91;143724;566;47002;-69
2023/04/25 06:21:06;;;;;;;15.10;9.80;;;;;;;21.62;40.65;100751.38;143722;762;47009;-69
2023/04/25 06:23:33;;;;;;;9.82;5.47;;;;;;;21.68;40.36;100752.22;143724;593;47008;-68
2023/04/25 06:25:59;;;;;;;11.52;7.95;;;;;;;21.72;40.80;100756.00;143724;591;47000;-68
2023/04/25 06:28:25;;;;;;;20.48;11.68;;;;;;;21.77;41.13;100756.03;143723;580;47002;-67
2023/04/25 06:30:51;;;;;;;11.18;7.30;;;;;;;21.83;40.50;100745.91;143722;639;47008;-68
2023/04/25 06:33:17;;;;;;;11.85;10.50;;;;;;;21.88;40.00;100746.75;143724;566;47008;-68
2023/04/25 06:35:44;;;;;;;8.52;4.95;;;;;;;21.92;39.84;100747.00;143722;587;47004;-68
2023/04/25 06:38:10;;;;;;;6.95;5.30;;;;;;;21.98;39.00;100742.34;143725;653;47004;-69
2023/04/25 06:40:36;;;;;;;6.03;4.95;;;;;;;22.01;39.23;100731.66;143723;588;47008;-68
2023/04/25 06:43:03;;;;;;;4.93;3.42;;;;;;;22.05;38.79;100740.16;143721;577;47012;-69
2023/04/25 06:45:29;;;;;;;6.80;3.33;;;;;;;22.09;38.21;100742.06;143724;752;46006;-69
2023/04/25 06:47:55;;;;;;;7.95;5.75;;;;;;;22.13;38.86;100728.66;143724;689;47004;-68
2023/04/25 06:50:22;;;;;;;7.75;5.12;;;;;;;22.18;39.43;100727.81;143721;591;47010;-68
2023/04/25 06:52:48;;;;;;;6.40;4.22;;;;;;;22.22;39.87;100731.66;143722;598;47004;-68
2023/04/25 06:55:14;;;;;;;5.12;3.25;;;;;;;22.26;38.90;100732.72;143724;566;47006;-68
2023/04/25 06:57:40;;;;;;;4.12;2.65;;;;;;;22.32;37.77;100725.34;143726;576;46024;-68
2023/04/25 07:00:11;;;;;;;11.05;4.45;;;;;;;22.35;37.70;100731.06;143724;574;47002;-67
2023/04/25 07:02:37;;;;;;;5.47;3.87;;;;;;;22.39;38.37;100726.69;143721;595;47011;-68
2023/04/25 07:05:04;;;;;;;6.60;3.40;;;;;;;22.45;38.49;100722.03;143722;569;47000;-68
2023/04/25 07:07:30;;;;;;;6.87;3.60;;;;;;;22.49;39.05;100728.59;143725;572;47004;-70
2023/04/25 07:09:57;;;;;;;6.35;3.40;;;;;;;22.54;39.46;100717.63;143723;572;46924;-68
2023/04/25 07:12:23;;;;;;;6.10;3.30;;;;;;;22.60;38.96;100712.97;143726;567;46008;-67
2023/04/25 07:14:49;;;;;;;4.20;2.92;;;;;;;22.65;38.83;100714.84;143724;595;46006;-68
2023/04/25 07:17:15;;;;;;;8.07;3.97;;;;;;;22.68;37.67;100709.62;143722;573;47002;-67
2023/04/25 07:19:43;;;;;;;6.22;4.15;;;;;;;22.75;38.25;100708.50;143723;579;47004;-69
2023/04/25 07:22:09;;;;;;;6.70;3.92;;;;;;;22.78;38.62;100711.50;143722;737;47004;-67
2023/04/25 07:24:36;;;;;;;5.12;3.20;;;;;;;22.80;38.86;100701.09;143725;599;46006;-68
2023/04/25 07:27:02;;;;;;;6.43;3.90;;;;;;;22.86;38.95;100699.13;143720;652;48011;-67
2023/04/25 07:29:29;;;;;;;4.43;2.62;;;;;;;22.91;37.55;100699.13;143719;669;48925;-65
2023/04/25 07:31:56;;;;;;;4.70;3.15;;;;;;;22.91;37.09;100701.03;143720;651;47004;-68
2023/04/25 07:34:22;;;;;;;5.57;3.15;;;;;;;22.97;38.17;100694.41;143724;607;46009;-68
2023/04/25 07:36:48;;;;;;;6.53;3.37;;;;;;;23.04;38.97;100699.56;143725;573;47007;-67
2023/04/25 07:39:15;;;;;;;5.62;3.97;;;;;;;23.09;38.24;100702.28;143723;588;47012;-67
2023/04/25 07:41:41;;;;;;;7.30;3.55;;;;;;;23.14;37.84;100694.06;143720;567;47006;-67
2023/04/25 07:44:08;;;;;;;4.30;3.10;;;;;;;23.21;37.08;100696.50;143723;741;47008;-68
2023/04/25 07:46:34;;;;;;;6.43;3.28;;;;;;;23.25;37.02;100692.91;143721;653;47004;-68
2023/04/25 07:49:00;;;;;;;7.93;3.80;;;;;;;23.32;37.64;100687.09;143723;660;47012;-68
2023/04/25 07:51:27;;;;;;;7.28;3.50;;;;;;;23.38;37.18;100693.38;143721;611;47004;-67
2023/04/25 07:53:53;;;;;;;4.37;2.72;;;;;;;23.42;35.99;100697.16;143723;572;47008;-69
2023/04/25 07:56:20;;;;;;;3.87;3.03;;;;;;;23.47;36.45;100699.88;143724;631;47002;-67
2023/04/25 07:58:46;;;;;;;4.82;3.25;;;;;;;23.53;36.90;100684.19;143724;595;47010;-67
2023/04/25 08:01:13;;;;;;;3.45;2.30;;;;;;;23.59;36.02;100683.06;143722;632;47004;-68
2023/04/25 08:03:39;;;;;;;5.75;3.08;;;;;;;23.65;35.34;100681.09;143725;671;46006;-68
2023/04/25 08:06:06;;;;;;;4.22;1.87;;;;;;;23.62;32.83;100677.81;143721;574;47002;-67
2023/04/25 08:08:32;;;;;;;2.50;1.87;;;;;;;23.64;32.67;100672.06;143722;605;47010;-67
2023/04/25 08:10:58;;;;;;;4.10;1.92;;;;;;;23.72;33.41;100674.16;143721;615;47004;-69
2023/04/25 08:13:25;;;;;;;3.83;2.20;;;;;;;23.75;33.21;100675.50;143724;624;47006;-68
2023/04/25 08:15:51;;;;;;;4.47;2.47;;;;;;;23.83;34.52;100674.06;143723;701;47002;-67
2023/04/25 08:18:18;;;;;;;5.07;2.80;;;;;;;23.89;34.00;100676.47;143722;628;47008;-67
2023/04/25 08:20:44;;;;;;;4.85;2.20;;;;;;;23.95;34.03;100674.50;143724;596;46009;-67
2023/04/25 08:23:11;;;;;;;6.35;2.20;;;;;;;24.00;34.33;100673.66;143725;681;46006;-67
2023/04/25 08:25:37;;;;;;;6.18;2.12;;;;;;;24.05;33.93;100684.56;143724;572;47002;-67
2023/04/25 08:28:03;;;;;;;4.82;2.53;;;;;;;24.13;33.35;100692.16;143725;645;46011;-66
2023/04/25 08:30:30;;;;;;;4.82;2.30;;;;;;;24.10;33.32;100692.72;143721;576;47004;-66
2023/04/25 08:32:56;;;;;;;5.15;2.47;;;;;;;24.13;33.73;100692.16;143724;611;47006;-67
2023/04/25 08:35:23;;;;;;;7.62;2.65;;;;;;;24.17;34.62;100703.38;143723;569;47002;-66
2023/04/25 08:37:49;;;;;;;9.25;4.60;;;;;;;24.24;35.33;100687.38;143722;579;48002;-67
2023/04/25 08:40:16;;;;;;;5.95;2.50;;;;;;;24.30;34.01;100691.72;143720;614;47004;-66
2023/04/25 08:42:42;;;;;;;5.37;2.47;;;;;;;24.36;33.87;100696.00;143722;589;47000;-68
2023/04/25 08:45:10;;;;;;;9.48;2.60;;;;;;;24.45;32.76;100698.91;143721;583;47002;-67
2023/04/25 08:47:38;;;;;;;4.18;2.30;;;;;;;24.52;32.45;100693.09;143724;577;47008;-68
2023/04/25 08:50:06;;;;;;;4.30;2.00;;;;;;;24.52;31.45;100693.91;143723;612;47004;-67
2023/04/25 08:52:44;;;;;;;6.25;2.62;;;;;;;24.43;36.83;100701.16;143724;567;47006;-68
2023/04/25 08:55:13;;;;;;;4.05;3.10;;;;;;;24.42;36.60;100702.28;143724;583;47004;-68
2023/04/25 08:57:42;;;;;;;7.00;3.78;;;;;;;24.42;36.50;100705.03;143724;584;47009;-67
2023/04/25 09:00:10;;;;;;;9.15;3.40;;;;;;;24.48;36.29;100708.53;143722;581;47004;-67
2023/04/25 09:02:37;;;;;;;6.53;4.20;;;;;;;24.48;35.91;100701.09;143725;662;47006;-67
2023/04/25 09:05:04;;;;;;;3.90;2.55;;;;;;;24.58;35.45;100696.59;143725;630;47002;-66
2023/04/25 09:07:31;;;;;;;6.75;1.87;;;;;;;24.66;31.46;100702.25;143720;577;47008;-67
2023/04/25 09:09:59;;;;;;;4.12;1.67;;;;;;;24.72;29.19;100700.28;143721;648;47004;-66
2023/04/25 09:12:27;;;;;;;5.03;1.92;;;;;;;24.81;29.91;100701.25;143725;666;47007;-67
2023/04/25 09:15:08;;;;;;;3.40;1.65;;;;;;;24.88;31.07;100703.66;143724;623;47002;-67
2023/04/25 09:17:35;;;;;;;4.43;1.60;;;;;;;24.90;29.33;100690.41;143724;590;47008;-66
2023/04/25 09:20:13;;;;;;;6.10;2.60;;;;;;;24.91;31.22;100697.53;143721;676;47004;-67
2023/04/25 09:22:40;;;;;;;7.47;1.98;;;;;;;25.00;29.37;100692.19;143723;645;46006;-67
2023/04/25 09:25:15;;;;;;;3.25;1.45;;;;;;;25.09;29.22;100698.66;143725;624;46006;-67
2023/04/25 09:27:52;;;;;;;8.85;2.45;;;;;;;25.21;29.32;100692.72;143724;583;47005;-67
2023/04/25 09:30:28;;;;;;;4.18;1.65;;;;;;;25.31;28.65;100688.16;143721;572;47004;-68
2023/04/25 09:32:58;;;;;;;2.72;1.67;;;;;;;25.36;28.54;100679.84;143723;590;47000;-68
2023/04/25 09:35:26;;;;;;;3.22;1.70;;;;;;;25.40;28.47;100686.41;143723;602;47002;-68
2023/04/25 09:37:52;;;;;;;3.75;1.85;;;;;;;25.48;27.43;100677.47;143725;574;46024;-65
2023/04/25 09:40:19;;;;;;;4.57;2.00;;;;;;;25.56;29.47;100668.56;143722;584;47004;-65
2023/04/25 09:42:45;;;;;;;4.78;1.90;;;;;;;25.65;28.23;100671.44;143725;586;47006;-65
2023/04/25 09:45:16;;;;;;;2.35;1.30;;;;;;;25.74;28.19;100666.03;143723;616;47002;-65
2023/04/25 09:47:43;;;;;;;2.00;1.20;;;;;;;25.81;27.40;100671.16;143721;615;47004;-67
2023/04/25 09:50:18;;;;;;;3.97;1.80;;;;;;;25.87;28.08;100669.91;143715;573;49005;-66
2023/04/25 09:52:45;;;;;;;4.00;2.03;;;;;;;25.93;28.22;100665.16;143725;591;47006;-67
2023/04/25 09:55:11;;;;;;;4.07;1.70;;;;;;;26.00;27.69;100668.31;143725;572;47002;-67
2023/04/25 09:57:39;;;;;;;3.83;1.50;;;;;;;26.05;27.74;100670.97;143725;602;46008;-65
2023/04/25 10:00:11;;;;;;;4.30;1.70;;;;;;;26.04;27.49;100663.81;143721;604;47931;-76
2023/04/25 10:02:41;;;;;;;3.83;2.12;;;;;;;26.09;28.02;100666.50;143722;574;48924;-68
2023/04/25 10:05:08;;;;;;;5.32;2.15;;;;;;;26.09;28.31;100665.66;143723;635;47002;-68
2023/04/25 10:07:37;;;;;;;2.62;1.55;;;;;;;26.16;27.38;100650.41;143723;585;47010;-68
2023/04/25 10:10:05;;;;;;;4.12;1.70;;;;;;;26.23;26.85;100647.22;143721;580;47004;-67
2023/04/25 10:12:33;;;;;;;4.53;1.50;;;;;;;26.21;27.29;100651.44;143723;619;47007;-67
2023/04/25 10:15:00;;;;;;;3.10;1.35;;;;;;;26.26;27.65;100646.63;143727;604;46010;-65
2023/04/25 10:17:29;;;;;;;2.83;1.60;;;;;;;26.28;26.88;100646.34;143724;597;46922;-65
2023/04/25 10:19:56;;;;;;;5.03;1.70;;;;;;;26.25;27.62;100649.69;143725;585;46012;-67
2023/04/25 10:22:31;;;;;;;3.15;1.65;;;;;;;26.30;27.52;100646.81;143723;628;46924;-67
2023/04/25 10:24:57;;;;;;;4.22;1.20;;;;;;;26.34;28.58;100645.09;143728;599;47006;-70
2023/04/25 10:27:24;;;;;;;3.05;1.85;;;;;;;26.32;27.57;100637.16;143725;592;47008;-73
2023/04/25 10:30:18;;;;;;;3.25;1.90;;;;;;;26.39;27.25;100646.91;143720;572;47004;-71
2023/04/25 10:32:45;;;;;;;3.90;2.10;;;;;;;26.45;27.34;100641.00;143725;592;46007;-73
2023/04/25 10:35:18;;;;;;;3.05;1.40;;;;;;;26.48;27.52;100640.37;143723;686;47002;-74
2023/04/25 10:38:13;;;;;;;3.25;1.50;;;;;;;26.52;27.47;100637.00;143717;572;48016;-74
2023/04/25 10:40:40;;;;;;;4.45;1.33;;;;;;;26.49;27.93;100628.22;143722;592;47008;-74
2023/04/25 10:43:34;;;;;;;4.37;1.90;;;;;;;26.48;28.49;100628.56;143724;624;46924;-72
2023/04/25 10:46:01;;;;;;;3.58;1.50;;;;;;;26.50;28.38;100623.56;143722;626;47002;-72
2023/04/25 10:48:31;;;;;;;3.70;2.08;;;;;;;26.53;28.26;100617.44;143723;604;47010;-72
2023/04/25 10:51:18;;;;;;;3.37;1.62;;;;;;;26.54;27.85;100610.81;143721;642;47004;-74
2023/04/25 10:53:56;;;;;;;3.87;1.37;;;;;;;26.54;28.30;100615.47;143725;592;47006;-73
2023/04/25 10:56:25;;;;;;;3.62;1.50;;;;;;;26.55;27.99;100609.69;143721;573;47002;-73
2023/04/25 10:58:52;;;;;;;3.67;2.08;;;;;;;26.57;28.51;100607.41;143720;670;47004;-73
2023/04/25 11:01:24;;;;;;;5.05;1.70;;;;;;;26.52;26.60;100610.28;143720;592;47004;-72
2023/04/25 11:03:58;;;;;;;4.70;1.30;;;;;;;26.48;26.19;100596.31;143724;592;47006;-73
2023/04/25 11:06:37;;;;;;;6.57;1.60;;;;;;;26.54;27.09;100599.78;143724;689;47004;-73
2023/04/25 11:09:09;;;;;;;4.00;1.20;;;;;;;26.54;26.28;100593.44;143723;582;46010;-72
2023/04/25 11:11:37;;;;;;;4.12;1.40;;;;;;;26.61;26.98;100597.41;143723;593;47004;-73
2023/04/25 11:14:03;;;;;;;2.70;1.50;;;;;;;26.63;27.11;100586.88;143723;569;47006;-74
2023/04/25 11:16:30;;;;;;;5.78;1.50;;;;;;;26.64;26.28;100574.75;143723;640;47002;-71
2023/04/25 11:19:00;;;;;;;5.53;2.50;;;;;;;26.64;25.48;100577.50;143721;626;46922;-76
2023/04/25 11:21:27;;;;;;;5.03;1.60;;;;;;;26.62;26.33;100565.19;143721;586;47004;-73
2023/04/25 11:23:56;;;;;;;5.45;1.42;;;;;;;26.60;26.24;100573.72;143725;584;46016;-74
2023/04/25 11:26:24;;;;;;;4.47;1.25;;;;;;;26.64;26.60;100563.72;143722;577;47003;-73